Time;durP1;ratioP1;P1;durP2;ratioP2;P2;SDS_P1;SDS_P2;PMS_P1;PMS_P2;Temp;Humidity;BMP_temperature;BMP_pressure;BME280_temperature;BME280_humidity;BME280_pressure;Samples;Min_cycle;Max_cycle;Signal;HPM_P1;HPM_P2
2023/08/10 00:00:32;;;;;;;5.22;1.90;;;;;;;;;;10369480;28;20038;-62
2023/08/10 00:05:34;;;;;;;6.95;1.83;;;;;;;;;;10370110;28;20026;-62
2023/08/10 00:10:34;;;;;;;2.10;1.50;;;;;;;;;;10368913;28;20026;-63
2023/08/10 00:15:35;;;;;;;5.03;1.58;;;;;;;;;;10368934;28;20397;-61
2023/08/10 00:20:36;;;;;;;4.60;1.60;;;;;;;;;;10369520;28;20033;-61
2023/08/10 00:25:36;;;;;;;2.40;1.67;;;;;;;;;;10368895;28;20101;-61
2023/08/10 00:30:38;;;;;;;2.50;1.42;;;;;;;;;;10368567;28;20034;-61
2023/08/10 00:35:39;;;;;;;7.00;1.63;;;;;;;;;;10367773;28;20418;-61
2023/08/10 00:40:39;;;;;;;3.25;1.50;;;;;;;;;;10368423;28;20037;-61
2023/08/10 00:45:40;;;;;;;4.88;2.13;;;;;;;;;;10368258;28;20378;-61
2023/08/10 00:50:41;;;;;;;3.45;1.80;;;;;;;;;;10367917;28;20022;-61
2023/08/10 00:55:43;;;;;;;3.10;2.45;;;;;;;;;;10367467;28;20393;-61
2023/08/10 01:00:43;;;;;;;5.40;2.20;;;;;;;;;;10367144;28;20522;-61
2023/08/10 01:05:57;;;;;;;3.05;2.45;;;;;;;;;;10367272;28;20026;-62
2023/08/10 01:11:35;;;;;;;2.70;2.10;;;;;;;;;;10366285;28;20033;-64
2023/08/10 01:16:40;;;;;;;5.35;2.63;;;;;;;;;;10360854;28;20045;-62
2023/08/10 01:21:53;;;;;;;3.78;2.22;;;;;;;;;;10367108;28;20026;-60
2023/08/10 01:26:55;;;;;;;4.90;2.63;;;;;;;;;;10365815;28;20056;-62
2023/08/10 01:31:56;;;;;;;7.93;2.90;;;;;;;;;;10366546;28;20462;-63
2023/08/10 01:36:57;;;;;;;4.22;2.80;;;;;;;;;;10370798;28;20052;-63
2023/08/10 01:41:58;;;;;;;5.10;2.90;;;;;;;;;;10375761;28;20026;-61
2023/08/10 01:47:06;;;;;;;6.93;2.92;;;;;;;;;;10374248;28;20022;-62
2023/08/10 01:52:11;;;;;;;8.13;2.83;;;;;;;;;;10373699;28;20216;-62
2023/08/10 01:57:12;;;;;;;5.70;3.45;;;;;;;;;;10373475;28;20034;-62
2023/08/10 02:02:13;;;;;;;3.80;2.58;;;;;;;;;;10373344;28;20120;-61
2023/08/10 02:07:13;;;;;;;4.53;2.92;;;;;;;;;;10374024;28;20340;-62
2023/08/10 02:12:14;;;;;;;4.35;2.88;;;;;;;;;;10373727;28;20049;-62
2023/08/10 02:17:15;;;;;;;3.42;2.35;;;;;;;;;;10373367;28;20026;-62
2023/08/10 02:22:16;;;;;;;4.80;2.33;;;;;;;;;;10373407;28;20474;-62
2023/08/10 02:27:18;;;;;;;2.38;1.90;;;;;;;;;;10373073;28;20432;-63
2023/08/10 02:32:18;;;;;;;2.42;2.10;;;;;;;;;;10373061;28;20034;-66
2023/08/10 02:37:19;;;;;;;9.32;2.65;;;;;;;;;;10372137;28;20057;-63
2023/08/10 02:42:20;;;;;;;4.22;2.25;;;;;;;;;;10387775;28;20128;-62
2023/08/10 02:47:20;;;;;;;3.58;1.98;;;;;;;;;;10371562;28;20377;-63
2023/08/10 02:52:21;;;;;;;4.05;2.10;;;;;;;;;;10371971;28;20029;-63
2023/08/10 02:57:21;;;;;;;10.77;1.98;;;;;;;;;;10371723;28;20037;-63
2023/08/10 03:02:22;;;;;;;2.67;1.88;;;;;;;;;;10371088;28;20026;-63
2023/08/10 03:07:22;;;;;;;3.20;2.20;;;;;;;;;;10371379;28;20036;-63
2023/08/10 03:12:23;;;;;;;3.50;2.10;;;;;;;;;;10372202;28;20288;-64
2023/08/10 03:17:24;;;;;;;7.32;2.05;;;;;;;;;;10371296;28;20453;-63
2023/08/10 03:22:27;;;;;;;12.68;1.98;;;;;;;;;;10371019;28;20647;-64
2023/08/10 03:27:27;;;;;;;5.38;2.17;;;;;;;;;;10371538;28;20025;-63
2023/08/10 03:32:28;;;;;;;3.30;2.08;;;;;;;;;;10370623;28;20030;-62
2023/08/10 03:37:29;;;;;;;2.42;2.10;;;;;;;;;;10370014;28;20061;-62
2023/08/10 03:42:29;;;;;;;3.05;1.80;;;;;;;;;;10371038;28;20386;-62
2023/08/10 03:47:30;;;;;;;4.55;1.92;;;;;;;;;;10370322;28;20029;-61
2023/08/10 03:52:30;;;;;;;2.22;2.00;;;;;;;;;;10370135;28;20058;-62
2023/08/10 03:57:32;;;;;;;6.22;1.80;;;;;;;;;;10369516;28;20371;-61
2023/08/10 04:02:33;;;;;;;5.03;2.20;;;;;;;;;;10370255;28;20049;-60
2023/08/10 04:07:37;;;;;;;2.55;1.75;;;;;;;;;;10369940;28;20057;-61
2023/08/10 04:12:38;;;;;;;5.93;2.17;;;;;;;;;;10369765;28;20113;-61
2023/08/10 04:17:39;;;;;;;5.15;2.08;;;;;;;;;;10369574;28;20030;-61
2023/08/10 04:22:40;;;;;;;3.88;2.05;;;;;;;;;;10370156;28;20026;-62
2023/08/10 04:27:40;;;;;;;5.18;2.25;;;;;;;;;;10368793;28;20026;-62
2023/08/10 04:32:41;;;;;;;7.30;2.00;;;;;;;;;;10368651;28;20022;-62
2023/08/10 04:37:41;;;;;;;2.58;2.05;;;;;;;;;;10368657;28;20257;-65
2023/08/10 04:42:42;;;;;;;2.25;1.77;;;;;;;;;;10368435;28;20030;-62
2023/08/10 04:47:43;;;;;;;2.20;1.85;;;;;;;;;;10367739;28;20029;-62
2023/08/10 04:52:44;;;;;;;8.73;2.10;;;;;;;;;;10368380;28;20044;-61
2023/08/10 04:57:44;;;;;;;5.25;1.80;;;;;;;;;;10367283;28;20493;-61
2023/08/10 05:02:45;;;;;;;2.67;1.83;;;;;;;;;;10367582;28;20054;-63
2023/08/10 05:07:46;;;;;;;2.65;1.88;;;;;;;;;;10367817;28;20040;-63
2023/08/10 05:12:48;;;;;;;14.85;1.90;;;;;;;;;;10366706;28;20173;-63
2023/08/10 05:17:48;;;;;;;2.88;1.98;;;;;;;;;;10367116;28;20045;-64
2023/08/10 05:22:49;;;;;;;1.65;1.55;;;;;;;;;;10367824;28;20026;-63
2023/08/10 05:27:50;;;;;;;3.85;1.40;;;;;;;;;;10367051;28;20026;-63
2023/08/10 05:32:50;;;;;;;2.63;1.70;;;;;;;;;;10367237;28;20390;-62
2023/08/10 05:37:52;;;;;;;4.28;1.75;;;;;;;;;;10433176;23;20442;-58
2023/08/10 05:42:56;;;;;;;10.73;2.13;;;;;;;;;;10373696;28;20030;-58
2023/08/10 05:47:57;;;;;;;5.90;1.98;;;;;;;;;;10373636;28;20033;-58
2023/08/10 05:52:59;;;;;;;10.85;1.73;;;;;;;;;;10374147;28;20104;-56
2023/08/10 05:58:01;;;;;;;5.13;1.50;;;;;;;;;;10373782;28;20122;-58
2023/08/10 06:03:04;;;;;;;6.82;1.50;;;;;;;;;;10373951;28;20030;-59
2023/08/10 06:08:07;;;;;;;7.50;2.00;;;;;;;;;;10373153;28;20034;-58
2023/08/10 06:13:08;;;;;;;4.13;1.55;;;;;;;;;;10368206;28;20061;-57
2023/08/10 06:18:08;;;;;;;12.65;1.70;;;;;;;;;;10365235;28;20100;-58
2023/08/10 06:23:09;;;;;;;6.82;1.50;;;;;;;;;;10368951;28;20026;-59
2023/08/10 06:28:09;;;;;;;7.68;1.58;;;;;;;;;;10371762;28;20358;-59
2023/08/10 06:33:11;;;;;;;7.65;1.90;;;;;;;;;;10372971;28;20026;-60
2023/08/10 06:38:12;;;;;;;8.63;1.65;;;;;;;;;;10373296;28;20474;-62
2023/08/10 06:43:13;;;;;;;5.30;1.73;;;;;;;;;;10372230;28;20029;-62
2023/08/10 06:48:13;;;;;;;3.78;1.70;;;;;;;;;;10373100;28;20029;-62
2023/08/10 06:53:14;;;;;;;4.97;1.60;;;;;;;;;;10372920;28;20025;-61
2023/08/10 06:58:14;;;;;;;4.82;1.80;;;;;;;;;;10372511;28;20038;-61
2023/08/10 07:03:15;;;;;;;2.58;1.48;;;;;;;;;;10372305;28;20025;-62
2023/08/10 07:08:16;;;;;;;2.63;1.67;;;;;;;;;;10372088;28;20455;-61
2023/08/10 07:13:17;;;;;;;8.98;1.85;;;;;;;;;;10372090;28;20034;-61
2023/08/10 07:18:17;;;;;;;6.32;1.85;;;;;;;;;;10371880;28;20640;-61
2023/08/10 07:23:18;;;;;;;5.72;1.75;;;;;;;;;;10371951;28;20029;-60
2023/08/10 07:28:21;;;;;;;2.35;1.60;;;;;;;;;;10371982;28;20033;-61
2023/08/10 07:33:21;;;;;;;2.60;1.42;;;;;;;;;;10371143;28;20036;-61
2023/08/10 07:38:22;;;;;;;4.00;1.85;;;;;;;;;;10370846;28;20060;-60
2023/08/10 07:43:23;;;;;;;2.10;1.60;;;;;;;;;;10371295;28;20026;-61
2023/08/10 07:48:23;;;;;;;2.42;1.20;;;;;;;;;;10370552;28;20022;-61
2023/08/10 07:53:24;;;;;;;4.43;1.55;;;;;;;;;;10370393;28;20029;-61
2023/08/10 07:58:25;;;;;;;1.98;1.33;;;;;;;;;;10371237;28;20144;-60
2023/08/10 08:03:25;;;;;;;2.95;1.35;;;;;;;;;;10368899;28;20088;-62
2023/08/10 08:08:28;;;;;;;3.03;1.42;;;;;;;;;;10370289;28;20034;-61
2023/08/10 08:13:29;;;;;;;1.27;1.17;;;;;;;;;;10370367;28;20036;-61
2023/08/10 08:18:49;;;;;;;2.78;1.40;;;;;;;;;;10369288;28;20392;-61
2023/08/10 08:23:52;;;;;;;2.08;1.33;;;;;;;;;;10369720;28;20033;-61
2023/08/10 08:28:53;;;;;;;2.00;1.45;;;;;;;;;;10369715;28;20038;-61
2023/08/10 08:33:54;;;;;;;3.03;1.50;;;;;;;;;;10369378;28;20033;-61
2023/08/10 08:38:54;;;;;;;1.67;1.27;;;;;;;;;;10368679;28;20042;-61
2023/08/10 08:43:55;;;;;;;2.65;1.40;;;;;;;;;;10368740;28;20032;-62
2023/08/10 08:48:56;;;;;;;2.25;1.27;;;;;;;;;;10368402;28;20026;-61
2023/08/10 08:54:01;;;;;;;2.00;1.33;;;;;;;;;;10366999;28;20097;-61
2023/08/10 08:59:02;;;;;;;1.50;1.38;;;;;;;;;;10368593;28;20038;-61
2023/08/10 09:04:03;;;;;;;1.42;1.33;;;;;;;;;;10367995;28;20435;-61
2023/08/10 09:09:04;;;;;;;5.65;1.45;;;;;;;;;;10368072;28;20053;-60
2023/08/10 09:14:08;;;;;;;3.13;1.45;;;;;;;;;;10368215;28;20026;-60
2023/08/10 09:19:12;;;;;;;3.05;1.90;;;;;;;;;;10368096;28;20030;-60
2023/08/10 09:24:13;;;;;;;2.13;1.33;;;;;;;;;;10368054;28;20033;-60
2023/08/10 09:29:13;;;;;;;2.38;1.30;;;;;;;;;;10367685;28;20026;-61
2023/08/10 09:34:21;;;;;;;1.65;1.50;;;;;;;;;;10367837;28;20176;-60
2023/08/10 09:39:22;;;;;;;2.63;1.40;;;;;;;;;;10367159;28;20501;-61
2023/08/10 09:44:23;;;;;;;2.05;1.58;;;;;;;;;;10367211;28;20037;-61
2023/08/10 09:49:23;;;;;;;1.90;1.45;;;;;;;;;;10367589;28;20026;-60
2023/08/10 09:54:24;;;;;;;1.38;1.27;;;;;;;;;;10367084;28;20357;-61
2023/08/10 09:59:25;;;;;;;1.90;1.35;;;;;;;;;;10372605;28;20056;-60
2023/08/10 10:04:28;;;;;;;3.45;1.80;;;;;;;;;;10375153;28;20053;-60
2023/08/10 10:09:30;;;;;;;6.72;1.52;;;;;;;;;;10374890;28;20029;-61
2023/08/10 10:14:31;;;;;;;1.30;1.20;;;;;;;;;;10372714;28;20084;-61
2023/08/10 10:19:33;;;;;;;2.05;1.67;;;;;;;;;;10374563;28;20029;-61
2023/08/10 10:24:38;;;;;;;1.90;1.65;;;;;;;;;;10372558;28;20034;-61
2023/08/10 10:29:59;;;;;;;1.50;1.40;;;;;;;;;;10372593;28;20033;-59
2023/08/10 10:35:00;;;;;;;2.50;1.40;;;;;;;;;;10372981;28;20064;-59
2023/08/10 10:40:14;;;;;;;2.42;1.45;;;;;;;;;;10373339;28;20445;-59
2023/08/10 10:45:23;;;;;;;3.58;1.45;;;;;;;;;;10373499;28;20097;-60
2023/08/10 10:50:29;;;;;;;4.40;1.70;;;;;;;;;;10372121;28;20022;-61
2023/08/10 10:55:35;;;;;;;2.10;1.45;;;;;;;;;;10372450;28;20104;-59
2023/08/10 11:00:37;;;;;;;1.48;1.38;;;;;;;;;;10372788;28;20029;-59
2023/08/10 11:05:37;;;;;;;2.33;1.40;;;;;;;;;;10372658;28;20061;-59
2023/08/10 11:10:40;;;;;;;3.33;1.50;;;;;;;;;;10371461;28;20176;-59
2023/08/10 11:15:44;;;;;;;5.65;1.83;;;;;;;;;;10370577;28;20040;-59
2023/08/10 11:20:48;;;;;;;2.05;1.50;;;;;;;;;;10370964;28;20032;-59
2023/08/10 11:25:51;;;;;;;1.73;1.60;;;;;;;;;;10371747;28;20029;-59
2023/08/10 11:30:52;;;;;;;2.00;1.52;;;;;;;;;;10370445;28;20026;-60
2023/08/10 11:35:53;;;;;;;1.75;1.52;;;;;;;;;;10370691;28;20058;-59
2023/08/10 11:40:57;;;;;;;1.63;1.40;;;;;;;;;;10371214;28;20478;-59
2023/08/10 11:45:58;;;;;;;1.85;1.55;;;;;;;;;;10370888;28;20364;-60
2023/08/10 11:51:01;;;;;;;1.40;1.30;;;;;;;;;;10371027;28;20303;-59
2023/08/10 11:56:04;;;;;;;2.60;1.40;;;;;;;;;;10370646;28;20038;-60
2023/08/10 12:01:06;;;;;;;1.83;1.40;;;;;;;;;;10370578;28;20026;-60
2023/08/10 12:06:07;;;;;;;2.42;1.42;;;;;;;;;;10370378;28;20030;-60
2023/08/10 12:11:11;;;;;;;1.85;1.23;;;;;;;;;;10370314;28;20116;-59
2023/08/10 12:16:12;;;;;;;3.03;1.58;;;;;;;;;;10369793;28;20088;-60
2023/08/10 12:21:13;;;;;;;2.67;1.60;;;;;;;;;;10369211;28;20480;-60
2023/08/10 12:26:13;;;;;;;4.00;1.90;;;;;;;;;;10369010;28;20101;-61
2023/08/10 12:31:14;;;;;;;1.85;1.50;;;;;;;;;;10369475;28;20018;-60
2023/08/10 12:36:15;;;;;;;5.32;1.70;;;;;;;;;;10368908;28;20132;-60
2023/08/10 12:41:16;;;;;;;2.78;1.48;;;;;;;;;;10368787;28;20087;-59
2023/08/10 12:46:19;;;;;;;2.10;1.50;;;;;;;;;;10368199;28;20084;-60
2023/08/10 12:51:19;;;;;;;1.95;1.60;;;;;;;;;;10368806;28;20037;-59
2023/08/10 12:56:20;;;;;;;6.45;1.83;;;;;;;;;;10368081;28;20033;-59
2023/08/10 13:01:20;;;;;;;3.95;1.60;;;;;;;;;;10368705;28;20026;-59
2023/08/10 13:06:21;;;;;;;3.55;1.70;;;;;;;;;;10367651;28;20068;-59
2023/08/10 13:11:21;;;;;;;1.73;1.60;;;;;;;;;;10368351;28;20153;-61
2023/08/10 13:16:22;;;;;;;2.63;1.50;;;;;;;;;;10367600;28;20037;-61
2023/08/10 13:21:23;;;;;;;3.92;1.55;;;;;;;;;;10368041;28;20381;-61
2023/08/10 13:26:24;;;;;;;3.28;1.80;;;;;;;;;;10367702;28;20041;-61
2023/08/10 13:31:24;;;;;;;3.88;2.00;;;;;;;;;;10368924;28;20053;-60
2023/08/10 13:36:25;;;;;;;2.15;1.60;;;;;;;;;;10375350;28;20236;-61
2023/08/10 13:41:25;;;;;;;5.57;1.83;;;;;;;;;;10375643;28;20033;-61
2023/08/10 13:46:26;;;;;;;4.15;1.80;;;;;;;;;;10375746;28;20022;-61
2023/08/10 13:51:27;;;;;;;3.03;1.60;;;;;;;;;;10374957;28;20026;-60
2023/08/10 13:56:28;;;;;;;3.30;1.88;;;;;;;;;;10375211;28;20042;-61
2023/08/10 14:01:28;;;;;;;2.13;1.58;;;;;;;;;;10374454;28;20485;-61
2023/08/10 14:06:29;;;;;;;2.63;1.90;;;;;;;;;;10374653;28;20025;-61
2023/08/10 14:11:30;;;;;;;2.22;1.73;;;;;;;;;;10374378;28;20030;-61
2023/08/10 14:16:31;;;;;;;5.03;1.98;;;;;;;;;;10374181;28;20313;-60
2023/08/10 14:21:32;;;;;;;14.35;2.60;;;;;;;;;;10374412;28;20026;-58
2023/08/10 14:26:32;;;;;;;43.90;4.38;;;;;;;;;;10373716;28;20382;-57
2023/08/10 14:31:33;;;;;;;24.35;2.92;;;;;;;;;;10374181;28;20026;-60
2023/08/10 14:36:34;;;;;;;21.40;3.15;;;;;;;;;;10373341;28;20050;-61
2023/08/10 14:41:34;;;;;;;22.83;3.20;;;;;;;;;;10373249;28;20402;-60
2023/08/10 14:46:35;;;;;;;15.30;2.83;;;;;;;;;;10373575;28;20041;-60
2023/08/10 14:51:35;;;;;;;22.42;3.75;;;;;;;;;;10372704;28;20034;-60
2023/08/10 14:56:36;;;;;;;11.98;2.60;;;;;;;;;;10373445;28;20026;-58
2023/08/10 15:01:37;;;;;;;10.88;2.70;;;;;;;;;;10372172;28;20524;-61
2023/08/10 15:06:39;;;;;;;5.50;2.47;;;;;;;;;;10371333;28;20528;-60
2023/08/10 15:11:39;;;;;;;9.73;2.05;;;;;;;;;;10372323;28;20038;-61
2023/08/10 15:16:40;;;;;;;4.82;2.20;;;;;;;;;;10370866;28;20026;-60
2023/08/10 15:21:40;;;;;;;10.10;2.55;;;;;;;;;;10371456;28;20037;-59
2023/08/10 15:26:41;;;;;;;5.78;2.20;;;;;;;;;;10371551;28;20038;-60
2023/08/10 15:31:42;;;;;;;7.18;2.40;;;;;;;;;;10371376;28;20029;-61
2023/08/10 15:36:42;;;;;;;3.83;2.13;;;;;;;;;;10370903;28;20057;-60
2023/08/10 15:41:43;;;;;;;3.08;1.95;;;;;;;;;;10370819;28;20033;-60
2023/08/10 15:46:44;;;;;;;7.70;1.77;;;;;;;;;;10370993;28;20072;-60
2023/08/10 15:51:44;;;;;;;6.35;2.35;;;;;;;;;;10370363;28;20436;-60
2023/08/10 15:56:45;;;;;;;5.05;1.90;;;;;;;;;;10369438;28;20041;-60
2023/08/10 16:01:46;;;;;;;2.70;1.83;;;;;;;;;;10370039;28;20025;-60
2023/08/10 16:06:47;;;;;;;3.80;1.80;;;;;;;;;;10370186;28;20037;-58
2023/08/10 16:11:47;;;;;;;5.72;2.30;;;;;;;;;;10369636;28;20026;-59
2023/08/10 16:16:49;;;;;;;6.00;2.00;;;;;;;;;;10369074;28;20034;-60
2023/08/10 16:21:50;;;;;;;9.10;2.10;;;;;;;;;;10369658;28;20036;-58
2023/08/10 16:26:50;;;;;;;2.33;1.85;;;;;;;;;;10369171;28;20045;-57
2023/08/10 16:31:51;;;;;;;3.55;2.05;;;;;;;;;;10368725;28;20026;-57
2023/08/10 16:36:52;;;;;;;4.13;2.10;;;;;;;;;;10368144;28;20053;-57
2023/08/10 16:41:52;;;;;;;2.22;1.52;;;;;;;;;;10368786;28;20033;-58
2023/08/10 16:46:54;;;;;;;3.08;1.75;;;;;;;;;;10368661;28;20057;-60
2023/08/10 16:51:54;;;;;;;2.88;1.88;;;;;;;;;;10367931;28;20034;-60
2023/08/10 16:56:55;;;;;;;3.13;1.92;;;;;;;;;;10368151;28;20030;-59
2023/08/10 17:01:56;;;;;;;3.88;1.92;;;;;;;;;;10368294;28;20524;-60
2023/08/10 17:06:56;;;;;;;3.63;2.03;;;;;;;;;;10366534;28;20021;-58
2023/08/10 17:11:57;;;;;;;2.03;1.83;;;;;;;;;;10367458;28;20374;-60
2023/08/10 17:17:00;;;;;;;2.88;2.05;;;;;;;;;;10367434;28;20495;-59
2023/08/10 17:22:04;;;;;;;3.97;2.00;;;;;;;;;;10367386;28;20069;-57
2023/08/10 17:27:05;;;;;;;2.88;1.80;;;;;;;;;;10367100;28;20032;-60
2023/08/10 17:32:06;;;;;;;4.13;1.73;;;;;;;;;;10367349;28;20021;-59
2023/08/10 17:37:07;;;;;;;3.17;2.00;;;;;;;;;;10366718;28;20072;-59
2023/08/10 17:42:08;;;;;;;2.90;1.75;;;;;;;;;;10367387;28;20049;-60
2023/08/10 17:47:09;;;;;;;3.67;1.92;;;;;;;;;;10367025;28;20469;-59
2023/08/10 17:52:10;;;;;;;2.22;1.70;;;;;;;;;;10366580;28;20026;-60
2023/08/10 17:57:10;;;;;;;2.80;1.77;;;;;;;;;;10367149;28;20495;-59
2023/08/10 18:02:11;;;;;;;1.92;1.50;;;;;;;;;;10366840;28;20030;-59
2023/08/10 18:07:11;;;;;;;3.78;2.10;;;;;;;;;;10366781;28;20465;-60
2023/08/10 18:12:12;;;;;;;6.50;1.95;;;;;;;;;;10365174;28;20393;-59
2023/08/10 18:17:14;;;;;;;7.57;1.88;;;;;;;;;;10366685;28;20030;-60
2023/08/10 18:22:14;;;;;;;4.88;1.70;;;;;;;;;;10373577;28;20238;-59
2023/08/10 18:27:15;;;;;;;3.42;1.92;;;;;;;;;;10373105;28;20026;-59
2023/08/10 18:32:16;;;;;;;2.88;1.65;;;;;;;;;;10372571;28;20386;-59
2023/08/10 18:37:17;;;;;;;3.42;1.90;;;;;;;;;;10372402;28;20050;-60
2023/08/10 18:42:17;;;;;;;2.45;1.73;;;;;;;;;;10372771;28;20486;-60
2023/08/10 18:47:19;;;;;;;7.43;1.73;;;;;;;;;;10372546;28;20037;-60
2023/08/10 18:52:21;;;;;;;2.58;1.83;;;;;;;;;;10372835;28;20109;-60
2023/08/10 18:57:21;;;;;;;4.57;1.80;;;;;;;;;;10372045;28;20041;-58
2023/08/10 19:02:22;;;;;;;3.60;1.83;;;;;;;;;;10371973;28;20064;-57
2023/08/10 19:07:23;;;;;;;5.45;2.00;;;;;;;;;;10371153;28;20041;-60
2023/08/10 19:12:23;;;;;;;3.13;2.15;;;;;;;;;;10372176;28;20034;-59
2023/08/10 19:17:24;;;;;;;3.08;1.98;;;;;;;;;;10370969;28;20088;-60
2023/08/10 19:22:24;;;;;;;3.20;2.10;;;;;;;;;;10371026;28;20038;-60
2023/08/10 19:27:25;;;;;;;4.47;2.05;;;;;;;;;;10370754;28;20022;-59
2023/08/10 19:32:25;;;;;;;4.15;2.40;;;;;;;;;;10369761;28;20025;-59
2023/08/10 19:37:26;;;;;;;2.78;1.92;;;;;;;;;;10370348;28;20054;-58
2023/08/10 19:42:27;;;;;;;5.43;2.17;;;;;;;;;;10370571;28;20034;-57
2023/08/10 19:47:27;;;;;;;8.80;2.55;;;;;;;;;;10369857;28;20030;-59
2023/08/10 19:52:28;;;;;;;7.18;2.28;;;;;;;;;;10370123;28;20037;-57
2023/08/10 19:57:29;;;;;;;5.05;2.58;;;;;;;;;;10369678;28;20065;-59
2023/08/10 20:02:29;;;;;;;4.03;2.08;;;;;;;;;;10369631;28;20033;-58
2023/08/10 20:07:30;;;;;;;2.58;2.08;;;;;;;;;;10369433;28;20436;-58
2023/08/10 20:12:30;;;;;;;4.10;1.90;;;;;;;;;;10369732;28;20370;-58
2023/08/10 20:17:37;;;;;;;2.47;2.05;;;;;;;;;;10368854;28;20459;-58
2023/08/10 20:22:38;;;;;;;4.35;2.20;;;;;;;;;;10369239;28;20254;-60
2023/08/10 20:27:40;;;;;;;4.18;2.08;;;;;;;;;;10369095;28;20095;-59
2023/08/10 20:32:41;;;;;;;4.57;2.35;;;;;;;;;;10368586;28;20026;-58
2023/08/10 20:37:41;;;;;;;4.20;2.10;;;;;;;;;;10367998;28;20423;-60
2023/08/10 20:42:42;;;;;;;2.70;1.80;;;;;;;;;;10368851;28;20030;-58
2023/08/10 20:47:42;;;;;;;3.72;1.98;;;;;;;;;;10368651;28;20022;-58
2023/08/10 20:52:43;;;;;;;3.00;2.20;;;;;;;;;;10368641;28;20033;-58
2023/08/10 20:57:44;;;;;;;6.65;2.00;;;;;;;;;;10367660;28;20080;-58
2023/08/10 21:02:44;;;;;;;5.00;1.90;;;;;;;;;;10366480;28;20480;-59
2023/08/10 21:07:45;;;;;;;3.42;1.88;;;;;;;;;;10366943;28;20034;-59
2023/08/10 21:12:46;;;;;;;3.25;1.92;;;;;;;;;;10367551;28;20030;-59
2023/08/10 21:17:46;;;;;;;2.00;1.75;;;;;;;;;;10366932;28;20026;-60
2023/08/10 21:22:47;;;;;;;3.10;2.15;;;;;;;;;;10367592;28;20056;-59
2023/08/10 21:27:47;;;;;;;2.78;2.08;;;;;;;;;;10367370;28;20038;-58
2023/08/10 21:32:48;;;;;;;2.63;2.20;;;;;;;;;;10367262;28;20030;-60
2023/08/10 21:37:48;;;;;;;4.43;2.00;;;;;;;;;;10367023;28;20104;-60
2023/08/10 21:42:49;;;;;;;4.15;2.15;;;;;;;;;;10367173;28;20031;-61
2023/08/10 21:47:50;;;;;;;5.57;2.13;;;;;;;;;;10382179;28;20096;-60
2023/08/10 21:52:50;;;;;;;2.88;2.08;;;;;;;;;;10369385;28;20037;-61
2023/08/10 21:57:51;;;;;;;4.57;2.38;;;;;;;;;;10375001;28;20030;-61
2023/08/10 22:02:52;;;;;;;4.20;2.40;;;;;;;;;;10374946;28;20057;-58
2023/08/10 22:07:53;;;;;;;3.38;2.25;;;;;;;;;;10373927;28;20033;-62
2023/08/10 22:12:54;;;;;;;6.30;2.20;;;;;;;;;;10374015;28;20037;-62
2023/08/10 22:17:54;;;;;;;5.70;3.00;;;;;;;;;;10373682;28;20470;-60
2023/08/10 22:22:55;;;;;;;13.80;2.92;;;;;;;;;;10373841;28;20030;-61
2023/08/10 22:27:55;;;;;;;6.07;3.13;;;;;;;;;;10373386;28;20180;-61
2023/08/10 22:32:56;;;;;;;7.40;2.78;;;;;;;;;;10373777;28;20030;-62
2023/08/10 22:37:57;;;;;;;6.93;3.10;;;;;;;;;;10372672;28;20057;-62
2023/08/10 22:42:57;;;;;;;6.80;3.03;;;;;;;;;;10373333;28;20069;-62
2023/08/10 22:47:59;;;;;;;3.70;2.85;;;;;;;;;;10387994;28;20079;-62
2023/08/10 22:52:59;;;;;;;9.38;3.55;;;;;;;;;;10372193;28;20362;-62
2023/08/10 22:58:00;;;;;;;9.68;2.75;;;;;;;;;;10372868;28;20029;-61
2023/08/10 23:03:00;;;;;;;4.75;3.20;;;;;;;;;;10371782;28;20189;-61
2023/08/10 23:08:01;;;;;;;5.40;2.80;;;;;;;;;;10371225;28;20034;-58
2023/08/10 23:13:06;;;;;;;7.07;2.55;;;;;;;;;;10371877;28;20034;-61
2023/08/10 23:18:10;;;;;;;3.38;2.65;;;;;;;;;;10371470;28;20366;-61
2023/08/10 23:23:10;;;;;;;3.70;2.50;;;;;;;;;;10371890;28;20025;-60
2023/08/10 23:28:11;;;;;;;7.80;3.35;;;;;;;;;;10371609;28;20034;-61
2023/08/10 23:33:12;;;;;;;4.28;2.80;;;;;;;;;;10371514;28;20026;-60
2023/08/10 23:38:12;;;;;;;4.20;3.80;;;;;;;;;;10370345;28;20046;-60
2023/08/10 23:43:13;;;;;;;3.78;2.90;;;;;;;;;;10370963;28;20037;-60
2023/08/10 23:48:14;;;;;;;5.63;2.92;;;;;;;;;;10370305;28;20029;-61
2023/08/10 23:53:15;;;;;;;10.57;2.90;;;;;;;;;;10370144;28;20121;-61
2023/08/10 23:58:16;;;;;;;4.43;2.90;;;;;;;;;;10370040;28;20022;-61
